sensor_id;sensor_type;location;lat;lon;timestamp;P1;durP1;ratioP1;P2;durP2;ratioP2
12511;SDS011;6321;53.798;10.382;2022-07-22T00:01:25;23.33;;;20.90;;
12511;SDS011;6321;53.798;10.382;2022-07-22T00:03:51;27.37;;;21.00;;
12511;SDS011;6321;53.798;10.382;2022-07-22T00:06:17;29.27;;;23.03;;
12511;SDS011;6321;53.798;10.382;2022-07-22T00:08:43;31.33;;;22.87;;
12511;SDS011;6321;53.798;10.382;2022-07-22T00:11:09;23.03;;;20.57;;
12511;SDS011;6321;53.798;10.382;2022-07-22T00:13:35;24.73;;;22.13;;
12511;SDS011;6321;53.798;10.382;2022-07-22T00:16:02;32.80;;;24.70;;
12511;SDS011;6321;53.798;10.382;2022-07-22T00:18:28;25.10;;;21.60;;
12511;SDS011;6321;53.798;10.382;2022-07-22T00:20:54;26.93;;;23.87;;
12511;SDS011;6321;53.798;10.382;2022-07-22T00:23:20;30.07;;;23.63;;
12511;SDS011;6321;53.798;10.382;2022-07-22T00:25:46;26.83;;;23.27;;
12511;SDS011;6321;53.798;10.382;2022-07-22T00:28:12;25.47;;;22.73;;
12511;SDS011;6321;53.798;10.382;2022-07-22T00:30:38;29.33;;;24.80;;
12511;SDS011;6321;53.798;10.382;2022-07-22T00:33:04;28.67;;;24.33;;
12511;SDS011;6321;53.798;10.382;2022-07-22T00:35:30;34.00;;;26.40;;
12511;SDS011;6321;53.798;10.382;2022-07-22T00:37:56;29.03;;;25.20;;
12511;SDS011;6321;53.798;10.382;2022-07-22T00:40:22;32.17;;;26.30;;
12511;SDS011;6321;53.798;10.382;2022-07-22T00:42:48;31.33;;;26.13;;
12511;SDS011;6321;53.798;10.382;2022-07-22T00:45:14;30.10;;;26.40;;
12511;SDS011;6321;53.798;10.382;2022-07-22T00:47:40;31.07;;;24.83;;
12511;SDS011;6321;53.798;10.382;2022-07-22T00:50:06;28.77;;;25.67;;
12511;SDS011;6321;53.798;10.382;2022-07-22T00:52:32;28.13;;;24.83;;
12511;SDS011;6321;53.798;10.382;2022-07-22T00:54:59;26.93;;;23.83;;
12511;SDS011;6321;53.798;10.382;2022-07-22T00:57:26;27.07;;;22.83;;
12511;SDS011;6321;53.798;10.382;2022-07-22T00:59:52;26.90;;;21.53;;
12511;SDS011;6321;53.798;10.382;2022-07-22T01:02:18;27.20;;;20.53;;
12511;SDS011;6321;53.798;10.382;2022-07-22T01:04:44;28.87;;;21.50;;
12511;SDS011;6321;53.798;10.382;2022-07-22T01:07:10;24.97;;;19.67;;
12511;SDS011;6321;53.798;10.382;2022-07-22T01:09:36;28.63;;;19.07;;
12511;SDS011;6321;53.798;10.382;2022-07-22T01:12:02;25.17;;;18.60;;
12511;SDS011;6321;53.798;10.382;2022-07-22T01:14:28;19.63;;;14.03;;
12511;SDS011;6321;53.798;10.382;2022-07-22T01:16:54;22.23;;;11.60;;
12511;SDS011;6321;53.798;10.382;2022-07-22T01:19:20;16.33;;;10.13;;
12511;SDS011;6321;53.798;10.382;2022-07-22T01:21:46;12.80;;;8.70;;
12511;SDS011;6321;53.798;10.382;2022-07-22T01:24:12;8.90;;;7.57;;
12511;SDS011;6321;53.798;10.382;2022-07-22T01:26:38;10.90;;;8.10;;
12511;SDS011;6321;53.798;10.382;2022-07-22T01:29:04;7.90;;;6.63;;
12511;SDS011;6321;53.798;10.382;2022-07-22T01:31:30;10.57;;;6.97;;
12511;SDS011;6321;53.798;10.382;2022-07-22T01:33:56;18.07;;;7.80;;
12511;SDS011;6321;53.798;10.382;2022-07-22T01:36:22;11.57;;;7.27;;
12511;SDS011;6321;53.798;10.382;2022-07-22T01:38:48;11.10;;;7.90;;
12511;SDS011;6321;53.798;10.382;2022-07-22T01:41:14;9.40;;;7.90;;
12511;SDS011;6321;53.798;10.382;2022-07-22T01:43:40;11.00;;;7.63;;
12511;SDS011;6321;53.798;10.382;2022-07-22T01:46:06;9.27;;;6.83;;
12511;SDS011;6321;53.798;10.382;2022-07-22T01:48:32;7.67;;;6.20;;
12511;SDS011;6321;53.798;10.382;2022-07-22T01:50:58;8.83;;;5.40;;
12511;SDS011;6321;53.798;10.382;2022-07-22T01:53:24;6.27;;;4.97;;
12511;SDS011;6321;53.798;10.382;2022-07-22T01:55:50;6.97;;;4.90;;
12511;SDS011;6321;53.798;10.382;2022-07-22T01:58:16;8.87;;;5.13;;
12511;SDS011;6321;53.798;10.382;2022-07-22T02:00:42;7.20;;;5.37;;
12511;SDS011;6321;53.798;10.382;2022-07-22T02:03:08;5.83;;;5.30;;
12511;SDS011;6321;53.798;10.382;2022-07-22T02:05:35;9.10;;;5.37;;
12511;SDS011;6321;53.798;10.382;2022-07-22T02:08:02;9.57;;;5.00;;
12511;SDS011;6321;53.798;10.382;2022-07-22T02:10:29;8.80;;;4.83;;
12511;SDS011;6321;53.798;10.382;2022-07-22T02:12:56;9.50;;;5.40;;
12511;SDS011;6321;53.798;10.382;2022-07-22T02:15:22;5.03;;;4.47;;
12511;SDS011;6321;53.798;10.382;2022-07-22T02:17:47;9.27;;;5.03;;
12511;SDS011;6321;53.798;10.382;2022-07-22T02:20:13;6.73;;;4.23;;
12511;SDS011;6321;53.798;10.382;2022-07-22T02:22:39;8.00;;;4.63;;
12511;SDS011;6321;53.798;10.382;2022-07-22T02:25:06;11.37;;;4.40;;
12511;SDS011;6321;53.798;10.382;2022-07-22T02:27:32;9.17;;;4.10;;
12511;SDS011;6321;53.798;10.382;2022-07-22T02:29:57;7.50;;;3.33;;
12511;SDS011;6321;53.798;10.382;2022-07-22T02:32:23;7.00;;;4.00;;
12511;SDS011;6321;53.798;10.382;2022-07-22T02:34:49;6.07;;;4.07;;
12511;SDS011;6321;53.798;10.382;2022-07-22T02:37:15;7.30;;;4.13;;
12511;SDS011;6321;53.798;10.382;2022-07-22T02:39:41;8.13;;;4.37;;
12511;SDS011;6321;53.798;10.382;2022-07-22T02:42:07;8.07;;;3.93;;
12511;SDS011;6321;53.798;10.382;2022-07-22T02:44:33;6.43;;;3.87;;
12511;SDS011;6321;53.798;10.382;2022-07-22T02:46:59;10.63;;;5.17;;
12511;SDS011;6321;53.798;10.382;2022-07-22T02:49:25;8.67;;;4.80;;
12511;SDS011;6321;53.798;10.382;2022-07-22T02:51:51;7.90;;;4.17;;
12511;SDS011;6321;53.798;10.382;2022-07-22T02:54:17;12.43;;;4.73;;
12511;SDS011;6321;53.798;10.382;2022-07-22T02:56:43;7.50;;;4.40;;
12511;SDS011;6321;53.798;10.382;2022-07-22T02:59:09;10.03;;;4.90;;
12511;SDS011;6321;53.798;10.382;2022-07-22T03:01:34;9.90;;;5.53;;
12511;SDS011;6321;53.798;10.382;2022-07-22T03:04:00;6.87;;;4.40;;
12511;SDS011;6321;53.798;10.382;2022-07-22T03:06:26;9.30;;;4.70;;
12511;SDS011;6321;53.798;10.382;2022-07-22T03:08:52;6.60;;;4.43;;
12511;SDS011;6321;53.798;10.382;2022-07-22T03:11:18;9.27;;;4.90;;
12511;SDS011;6321;53.798;10.382;2022-07-22T03:13:44;13.17;;;5.07;;
12511;SDS011;6321;53.798;10.382;2022-07-22T03:16:10;9.03;;;5.07;;
12511;SDS011;6321;53.798;10.382;2022-07-22T03:18:36;8.00;;;4.97;;
12511;SDS011;6321;53.798;10.382;2022-07-22T03:21:02;6.97;;;4.93;;
12511;SDS011;6321;53.798;10.382;2022-07-22T03:23:28;8.57;;;4.67;;
12511;SDS011;6321;53.798;10.382;2022-07-22T03:25:55;9.20;;;4.80;;
12511;SDS011;6321;53.798;10.382;2022-07-22T03:28:21;8.10;;;4.37;;
12511;SDS011;6321;53.798;10.382;2022-07-22T03:30:47;8.63;;;4.73;;
12511;SDS011;6321;53.798;10.382;2022-07-22T03:33:13;8.53;;;4.83;;
12511;SDS011;6321;53.798;10.382;2022-07-22T03:35:39;10.20;;;4.90;;
12511;SDS011;6321;53.798;10.382;2022-07-22T03:38:05;10.00;;;5.57;;
12511;SDS011;6321;53.798;10.382;2022-07-22T03:40:31;7.47;;;4.67;;
12511;SDS011;6321;53.798;10.382;2022-07-22T03:42:57;7.87;;;5.10;;
12511;SDS011;6321;53.798;10.382;2022-07-22T03:45:23;10.67;;;4.87;;
12511;SDS011;6321;53.798;10.382;2022-07-22T03:47:49;8.97;;;5.10;;
12511;SDS011;6321;53.798;10.382;2022-07-22T03:50:16;8.63;;;4.20;;
12511;SDS011;6321;53.798;10.382;2022-07-22T03:52:41;7.43;;;3.83;;
12511;SDS011;6321;53.798;10.382;2022-07-22T03:55:07;9.20;;;4.07;;
12511;SDS011;6321;53.798;10.382;2022-07-22T03:57:33;7.37;;;4.10;;
12511;SDS011;6321;53.798;10.382;2022-07-22T03:59:59;10.63;;;5.00;;
12511;SDS011;6321;53.798;10.382;2022-07-22T04:02:25;13.07;;;4.73;;
12511;SDS011;6321;53.798;10.382;2022-07-22T04:04:51;9.23;;;4.30;;
12511;SDS011;6321;53.798;10.382;2022-07-22T04:07:17;7.40;;;4.30;;
12511;SDS011;6321;53.798;10.382;2022-07-22T04:09:43;9.13;;;4.57;;
12511;SDS011;6321;53.798;10.382;2022-07-22T04:12:09;7.40;;;4.30;;
12511;SDS011;6321;53.798;10.382;2022-07-22T04:14:35;10.57;;;5.40;;
12511;SDS011;6321;53.798;10.382;2022-07-22T04:17:01;11.37;;;5.13;;
12511;SDS011;6321;53.798;10.382;2022-07-22T04:19:27;12.60;;;5.37;;
12511;SDS011;6321;53.798;10.382;2022-07-22T04:21:53;7.80;;;5.13;;
12511;SDS011;6321;53.798;10.382;2022-07-22T04:24:19;13.17;;;5.13;;
12511;SDS011;6321;53.798;10.382;2022-07-22T04:26:45;13.17;;;5.97;;
12511;SDS011;6321;53.798;10.382;2022-07-22T04:29:11;9.73;;;6.13;;
12511;SDS011;6321;53.798;10.382;2022-07-22T04:31:37;18.47;;;8.13;;
12511;SDS011;6321;53.798;10.382;2022-07-22T04:34:03;9.67;;;6.87;;
12511;SDS011;6321;53.798;10.382;2022-07-22T04:36:28;13.40;;;7.50;;
12511;SDS011;6321;53.798;10.382;2022-07-22T04:38:54;15.07;;;7.63;;
12511;SDS011;6321;53.798;10.382;2022-07-22T04:41:20;16.43;;;7.53;;
12511;SDS011;6321;53.798;10.382;2022-07-22T04:43:46;17.50;;;8.13;;
12511;SDS011;6321;53.798;10.382;2022-07-22T04:46:13;14.97;;;8.10;;
12511;SDS011;6321;53.798;10.382;2022-07-22T04:48:39;21.47;;;9.23;;
12511;SDS011;6321;53.798;10.382;2022-07-22T04:51:05;13.10;;;8.53;;
12511;SDS011;6321;53.798;10.382;2022-07-22T04:53:31;19.27;;;8.97;;
12511;SDS011;6321;53.798;10.382;2022-07-22T04:55:56;15.17;;;9.30;;
12511;SDS011;6321;53.798;10.382;2022-07-22T04:58:22;25.20;;;10.17;;
12511;SDS011;6321;53.798;10.382;2022-07-22T05:00:48;14.30;;;8.90;;
12511;SDS011;6321;53.798;10.382;2022-07-22T05:03:15;18.57;;;8.10;;
12511;SDS011;6321;53.798;10.382;2022-07-22T05:05:41;18.83;;;9.00;;
12511;SDS011;6321;53.798;10.382;2022-07-22T05:08:06;14.47;;;7.97;;
12511;SDS011;6321;53.798;10.382;2022-07-22T05:10:32;15.43;;;7.60;;
12511;SDS011;6321;53.798;10.382;2022-07-22T05:12:59;11.57;;;8.03;;
12511;SDS011;6321;53.798;10.382;2022-07-22T05:15:25;16.93;;;8.00;;
12511;SDS011;6321;53.798;10.382;2022-07-22T05:17:51;15.87;;;6.63;;
12511;SDS011;6321;53.798;10.382;2022-07-22T05:20:17;13.70;;;6.40;;
12511;SDS011;6321;53.798;10.382;2022-07-22T05:22:43;18.53;;;5.97;;
12511;SDS011;6321;53.798;10.382;2022-07-22T05:25:09;12.47;;;6.60;;
12511;SDS011;6321;53.798;10.382;2022-07-22T05:27:35;13.40;;;5.80;;
12511;SDS011;6321;53.798;10.382;2022-07-22T05:30:02;12.60;;;6.03;;
12511;SDS011;6321;53.798;10.382;2022-07-22T05:32:27;16.57;;;6.50;;
12511;SDS011;6321;53.798;10.382;2022-07-22T05:34:53;15.90;;;6.40;;
12511;SDS011;6321;53.798;10.382;2022-07-22T05:37:19;12.27;;;5.83;;
12511;SDS011;6321;53.798;10.382;2022-07-22T05:39:45;12.33;;;5.60;;
12511;SDS011;6321;53.798;10.382;2022-07-22T05:42:11;16.57;;;5.97;;
12511;SDS011;6321;53.798;10.382;2022-07-22T05:44:37;14.97;;;5.97;;
12511;SDS011;6321;53.798;10.382;2022-07-22T05:47:03;15.43;;;6.20;;
12511;SDS011;6321;53.798;10.382;2022-07-22T05:49:29;20.80;;;6.60;;
12511;SDS011;6321;53.798;10.382;2022-07-22T05:51:55;15.57;;;5.57;;
12511;SDS011;6321;53.798;10.382;2022-07-22T05:54:25;15.67;;;5.90;;
12511;SDS011;6321;53.798;10.382;2022-07-22T05:56:51;18.07;;;5.97;;
12511;SDS011;6321;53.798;10.382;2022-07-22T05:59:17;11.60;;;6.13;;
12511;SDS011;6321;53.798;10.382;2022-07-22T06:01:42;17.27;;;5.60;;
12511;SDS011;6321;53.798;10.382;2022-07-22T06:04:08;13.13;;;5.50;;
12511;SDS011;6321;53.798;10.382;2022-07-22T06:06:34;11.53;;;5.37;;
12511;SDS011;6321;53.798;10.382;2022-07-22T06:09:00;11.20;;;5.83;;
12511;SDS011;6321;53.798;10.382;2022-07-22T06:11:26;15.57;;;5.53;;
12511;SDS011;6321;53.798;10.382;2022-07-22T06:13:52;9.03;;;4.93;;
12511;SDS011;6321;53.798;10.382;2022-07-22T06:16:18;19.07;;;6.40;;
12511;SDS011;6321;53.798;10.382;2022-07-22T06:18:44;16.60;;;5.73;;
12511;SDS011;6321;53.798;10.382;2022-07-22T06:21:10;11.93;;;4.90;;
12511;SDS011;6321;53.798;10.382;2022-07-22T06:23:36;17.37;;;6.23;;
12511;SDS011;6321;53.798;10.382;2022-07-22T06:26:02;9.33;;;5.03;;
12511;SDS011;6321;53.798;10.382;2022-07-22T06:28:28;15.10;;;6.00;;
12511;SDS011;6321;53.798;10.382;2022-07-22T06:30:54;11.20;;;4.93;;
12511;SDS011;6321;53.798;10.382;2022-07-22T06:33:20;11.07;;;5.50;;
12511;SDS011;6321;53.798;10.382;2022-07-22T06:35:45;12.37;;;5.40;;
12511;SDS011;6321;53.798;10.382;2022-07-22T06:38:11;12.77;;;5.47;;
12511;SDS011;6321;53.798;10.382;2022-07-22T06:40:37;11.57;;;5.53;;
12511;SDS011;6321;53.798;10.382;2022-07-22T06:43:03;16.47;;;5.80;;
12511;SDS011;6321;53.798;10.382;2022-07-22T06:45:29;14.00;;;5.33;;
12511;SDS011;6321;53.798;10.382;2022-07-22T06:47:56;18.37;;;5.57;;
12511;SDS011;6321;53.798;10.382;2022-07-22T06:50:23;8.90;;;5.03;;
12511;SDS011;6321;53.798;10.382;2022-07-22T06:52:48;13.40;;;5.10;;
12511;SDS011;6321;53.798;10.382;2022-07-22T06:55:15;13.93;;;5.33;;
12511;SDS011;6321;53.798;10.382;2022-07-22T06:57:41;15.80;;;5.87;;
12511;SDS011;6321;53.798;10.382;2022-07-22T07:00:07;12.20;;;5.43;;
12511;SDS011;6321;53.798;10.382;2022-07-22T07:02:34;14.57;;;5.87;;
12511;SDS011;6321;53.798;10.382;2022-07-22T07:05:00;12.70;;;6.00;;
12511;SDS011;6321;53.798;10.382;2022-07-22T07:07:26;15.27;;;5.53;;
12511;SDS011;6321;53.798;10.382;2022-07-22T07:09:52;12.57;;;5.40;;
12511;SDS011;6321;53.798;10.382;2022-07-22T07:12:17;16.33;;;5.40;;
12511;SDS011;6321;53.798;10.382;2022-07-22T07:14:43;10.97;;;5.10;;
12511;SDS011;6321;53.798;10.382;2022-07-22T07:17:09;13.97;;;4.70;;
12511;SDS011;6321;53.798;10.382;2022-07-22T07:19:35;15.37;;;5.37;;
12511;SDS011;6321;53.798;10.382;2022-07-22T07:22:01;17.50;;;5.50;;
12511;SDS011;6321;53.798;10.382;2022-07-22T07:24:27;12.00;;;4.57;;
12511;SDS011;6321;53.798;10.382;2022-07-22T07:26:53;14.87;;;4.40;;
12511;SDS011;6321;53.798;10.382;2022-07-22T07:29:19;13.33;;;4.70;;
12511;SDS011;6321;53.798;10.382;2022-07-22T07:31:45;11.87;;;4.00;;
12511;SDS011;6321;53.798;10.382;2022-07-22T07:34:11;16.67;;;4.97;;
12511;SDS011;6321;53.798;10.382;2022-07-22T07:36:37;13.17;;;4.10;;
12511;SDS011;6321;53.798;10.382;2022-07-22T07:39:03;12.67;;;4.37;;
12511;SDS011;6321;53.798;10.382;2022-07-22T07:41:29;10.97;;;4.37;;
12511;SDS011;6321;53.798;10.382;2022-07-22T07:43:54;13.00;;;4.70;;
12511;SDS011;6321;53.798;10.382;2022-07-22T07:46:20;12.13;;;4.63;;
12511;SDS011;6321;53.798;10.382;2022-07-22T07:48:46;18.27;;;6.30;;
12511;SDS011;6321;53.798;10.382;2022-07-22T07:51:13;10.93;;;4.70;;
12511;SDS011;6321;53.798;10.382;2022-07-22T07:53:39;10.67;;;4.27;;
12511;SDS011;6321;53.798;10.382;2022-07-22T07:56:05;12.10;;;4.60;;
12511;SDS011;6321;53.798;10.382;2022-07-22T07:58:31;12.00;;;4.80;;
12511;SDS011;6321;53.798;10.382;2022-07-22T08:00:57;9.67;;;4.63;;
12511;SDS011;6321;53.798;10.382;2022-07-22T08:03:23;9.90;;;4.37;;
12511;SDS011;6321;53.798;10.382;2022-07-22T08:05:48;12.37;;;4.17;;
12511;SDS011;6321;53.798;10.382;2022-07-22T08:08:14;11.30;;;4.53;;
12511;SDS011;6321;53.798;10.382;2022-07-22T08:10:41;16.80;;;4.30;;
12511;SDS011;6321;53.798;10.382;2022-07-22T08:13:07;10.07;;;4.13;;
12511;SDS011;6321;53.798;10.382;2022-07-22T08:15:33;12.47;;;3.83;;
12511;SDS011;6321;53.798;10.382;2022-07-22T08:17:59;11.43;;;3.73;;
12511;SDS011;6321;53.798;10.382;2022-07-22T08:20:25;12.10;;;3.70;;
12511;SDS011;6321;53.798;10.382;2022-07-22T08:22:52;10.10;;;3.60;;
12511;SDS011;6321;53.798;10.382;2022-07-22T08:25:18;13.10;;;3.73;;
12511;SDS011;6321;53.798;10.382;2022-07-22T08:27:44;8.13;;;3.33;;
12511;SDS011;6321;53.798;10.382;2022-07-22T08:30:10;9.27;;;3.27;;
12511;SDS011;6321;53.798;10.382;2022-07-22T08:32:36;11.50;;;4.27;;
12511;SDS011;6321;53.798;10.382;2022-07-22T08:35:02;10.20;;;3.83;;
12511;SDS011;6321;53.798;10.382;2022-07-22T08:37:29;13.80;;;4.43;;
12511;SDS011;6321;53.798;10.382;2022-07-22T08:39:55;10.23;;;3.73;;
12511;SDS011;6321;53.798;10.382;2022-07-22T08:42:21;13.53;;;4.60;;
12511;SDS011;6321;53.798;10.382;2022-07-22T08:44:47;13.70;;;3.67;;
12511;SDS011;6321;53.798;10.382;2022-07-22T08:47:13;8.87;;;3.00;;
12511;SDS011;6321;53.798;10.382;2022-07-22T08:49:39;9.37;;;3.37;;
12511;SDS011;6321;53.798;10.382;2022-07-22T08:52:05;7.07;;;2.90;;
12511;SDS011;6321;53.798;10.382;2022-07-22T08:54:31;7.70;;;3.10;;
12511;SDS011;6321;53.798;10.382;2022-07-22T08:56:57;7.63;;;3.10;;
12511;SDS011;6321;53.798;10.382;2022-07-22T08:59:24;9.80;;;3.50;;
12511;SDS011;6321;53.798;10.382;2022-07-22T09:02:06;10.23;;;3.00;;
12511;SDS011;6321;53.798;10.382;2022-07-22T09:04:32;7.90;;;2.73;;
12511;SDS011;6321;53.798;10.382;2022-07-22T09:06:58;9.60;;;3.60;;
12511;SDS011;6321;53.798;10.382;2022-07-22T09:09:31;8.77;;;2.57;;
12511;SDS011;6321;53.798;10.382;2022-07-22T09:12:07;5.93;;;2.50;;
12511;SDS011;6321;53.798;10.382;2022-07-22T09:14:46;9.10;;;2.67;;
12511;SDS011;6321;53.798;10.382;2022-07-22T09:17:30;7.73;;;3.13;;
12511;SDS011;6321;53.798;10.382;2022-07-22T09:19:57;7.17;;;2.43;;
12511;SDS011;6321;53.798;10.382;2022-07-22T09:22:30;7.30;;;3.07;;
12511;SDS011;6321;53.798;10.382;2022-07-22T09:24:56;7.37;;;2.17;;
12511;SDS011;6321;53.798;10.382;2022-07-22T09:27:22;9.77;;;2.70;;
12511;SDS011;6321;53.798;10.382;2022-07-22T09:29:49;6.30;;;2.33;;
12511;SDS011;6321;53.798;10.382;2022-07-22T09:32:15;5.87;;;2.33;;
12511;SDS011;6321;53.798;10.382;2022-07-22T09:34:41;8.90;;;3.20;;
12511;SDS011;6321;53.798;10.382;2022-07-22T09:37:07;10.33;;;3.47;;
12511;SDS011;6321;53.798;10.382;2022-07-22T09:39:33;7.07;;;3.13;;
12511;SDS011;6321;53.798;10.382;2022-07-22T09:42:00;10.70;;;3.30;;
12511;SDS011;6321;53.798;10.382;2022-07-22T09:44:26;7.10;;;2.47;;
12511;SDS011;6321;53.798;10.382;2022-07-22T09:46:52;4.33;;;2.13;;
12511;SDS011;6321;53.798;10.382;2022-07-22T09:49:31;5.80;;;3.03;;
12511;SDS011;6321;53.798;10.382;2022-07-22T09:51:57;10.47;;;3.00;;
12511;SDS011;6321;53.798;10.382;2022-07-22T09:54:23;5.30;;;2.40;;
12511;SDS011;6321;53.798;10.382;2022-07-22T09:56:50;6.03;;;2.43;;
12511;SDS011;6321;53.798;10.382;2022-07-22T09:59:16;6.17;;;2.83;;
12511;SDS011;6321;53.798;10.382;2022-07-22T10:01:42;4.90;;;2.20;;
12511;SDS011;6321;53.798;10.382;2022-07-22T10:04:08;5.47;;;2.10;;
12511;SDS011;6321;53.798;10.382;2022-07-22T10:06:37;3.63;;;2.30;;
12511;SDS011;6321;53.798;10.382;2022-07-22T10:09:04;5.07;;;2.50;;
12511;SDS011;6321;53.798;10.382;2022-07-22T10:11:30;6.33;;;2.23;;
12511;SDS011;6321;53.798;10.382;2022-07-22T10:13:56;11.40;;;3.03;;
12511;SDS011;6321;53.798;10.382;2022-07-22T10:16:22;6.93;;;2.40;;
12511;SDS011;6321;53.798;10.382;2022-07-22T10:18:48;10.70;;;3.10;;
12511;SDS011;6321;53.798;10.382;2022-07-22T10:21:14;8.00;;;2.20;;
12511;SDS011;6321;53.798;10.382;2022-07-22T10:29:23;7.00;;;2.63;;
12511;SDS011;6321;53.798;10.382;2022-07-22T10:31:49;10.10;;;2.30;;
12511;SDS011;6321;53.798;10.382;2022-07-22T10:34:15;6.77;;;2.60;;
12511;SDS011;6321;53.798;10.382;2022-07-22T10:36:41;5.50;;;2.43;;
12511;SDS011;6321;53.798;10.382;2022-07-22T10:39:09;7.10;;;2.70;;
12511;SDS011;6321;53.798;10.382;2022-07-22T10:41:40;6.60;;;2.33;;
12511;SDS011;6321;53.798;10.382;2022-07-22T10:44:06;7.07;;;2.47;;
12511;SDS011;6321;53.798;10.382;2022-07-22T10:49:15;5.33;;;2.60;;
12511;SDS011;6321;53.798;10.382;2022-07-22T10:51:47;4.47;;;2.47;;
12511;SDS011;6321;53.798;10.382;2022-07-22T10:54:26;12.60;;;2.83;;
12511;SDS011;6321;53.798;10.382;2022-07-22T10:56:52;7.03;;;2.43;;
12511;SDS011;6321;53.798;10.382;2022-07-22T10:59:19;4.57;;;2.77;;
12511;SDS011;6321;53.798;10.382;2022-07-22T11:01:50;6.20;;;2.60;;
12511;SDS011;6321;53.798;10.382;2022-07-22T11:04:20;4.33;;;2.43;;
12511;SDS011;6321;53.798;10.382;2022-07-22T11:06:47;4.43;;;2.30;;
12511;SDS011;6321;53.798;10.382;2022-07-22T11:09:14;6.13;;;2.43;;
12511;SDS011;6321;53.798;10.382;2022-07-22T11:11:44;5.27;;;2.77;;
12511;SDS011;6321;53.798;10.382;2022-07-22T11:14:18;5.47;;;2.20;;
12511;SDS011;6321;53.798;10.382;2022-07-22T11:16:46;6.53;;;2.63;;
12511;SDS011;6321;53.798;10.382;2022-07-22T11:19:12;6.73;;;2.57;;
12511;SDS011;6321;53.798;10.382;2022-07-22T11:21:38;5.67;;;2.47;;
12511;SDS011;6321;53.798;10.382;2022-07-22T11:24:05;5.30;;;2.40;;
12511;SDS011;6321;53.798;10.382;2022-07-22T11:26:42;3.63;;;2.37;;
12511;SDS011;6321;53.798;10.382;2022-07-22T11:29:09;5.43;;;2.20;;
12511;SDS011;6321;53.798;10.382;2022-07-22T11:31:36;6.80;;;3.03;;
12511;SDS011;6321;53.798;10.382;2022-07-22T11:34:06;5.80;;;2.30;;
12511;SDS011;6321;53.798;10.382;2022-07-22T11:36:34;8.50;;;2.60;;
12511;SDS011;6321;53.798;10.382;2022-07-22T11:39:00;5.70;;;2.50;;
12511;SDS011;6321;53.798;10.382;2022-07-22T11:41:28;6.50;;;2.40;;
12511;SDS011;6321;53.798;10.382;2022-07-22T11:43:54;5.67;;;2.60;;
12511;SDS011;6321;53.798;10.382;2022-07-22T11:46:20;9.47;;;2.70;;
12511;SDS011;6321;53.798;10.382;2022-07-22T11:48:46;4.57;;;2.17;;
12511;SDS011;6321;53.798;10.382;2022-07-22T11:51:12;6.53;;;2.10;;
12511;SDS011;6321;53.798;10.382;2022-07-22T11:53:40;6.93;;;2.40;;
12511;SDS011;6321;53.798;10.382;2022-07-22T11:56:07;6.70;;;2.73;;
12511;SDS011;6321;53.798;10.382;2022-07-22T11:58:44;6.00;;;2.20;;
12511;SDS011;6321;53.798;10.382;2022-07-22T12:01:11;8.03;;;2.83;;
12511;SDS011;6321;53.798;10.382;2022-07-22T12:03:39;8.50;;;2.50;;
12511;SDS011;6321;53.798;10.382;2022-07-22T12:06:09;9.27;;;3.17;;
12511;SDS011;6321;53.798;10.382;2022-07-22T12:08:38;5.07;;;2.13;;
12511;SDS011;6321;53.798;10.382;2022-07-22T12:11:05;7.70;;;2.53;;
12511;SDS011;6321;53.798;10.382;2022-07-22T12:13:31;7.60;;;2.10;;
12511;SDS011;6321;53.798;10.382;2022-07-22T12:15:58;5.97;;;2.67;;
12511;SDS011;6321;53.798;10.382;2022-07-22T12:18:25;4.63;;;1.87;;
12511;SDS011;6321;53.798;10.382;2022-07-22T12:20:52;8.20;;;2.77;;
12511;SDS011;6321;53.798;10.382;2022-07-22T12:23:19;6.00;;;2.27;;
12511;SDS011;6321;53.798;10.382;2022-07-22T12:25:57;4.50;;;2.10;;
12511;SDS011;6321;53.798;10.382;2022-07-22T12:28:24;7.07;;;2.50;;
12511;SDS011;6321;53.798;10.382;2022-07-22T12:30:50;6.23;;;2.20;;
12511;SDS011;6321;53.798;10.382;2022-07-22T12:33:17;6.37;;;2.30;;
12511;SDS011;6321;53.798;10.382;2022-07-22T12:35:43;7.63;;;2.63;;
12511;SDS011;6321;53.798;10.382;2022-07-22T12:38:10;4.03;;;1.87;;
12511;SDS011;6321;53.798;10.382;2022-07-22T12:40:36;4.03;;;1.80;;
12511;SDS011;6321;53.798;10.382;2022-07-22T12:43:03;6.53;;;2.37;;
12511;SDS011;6321;53.798;10.382;2022-07-22T12:45:30;3.33;;;1.90;;
12511;SDS011;6321;53.798;10.382;2022-07-22T12:48:00;7.23;;;2.57;;
12511;SDS011;6321;53.798;10.382;2022-07-22T12:50:35;8.87;;;2.70;;
12511;SDS011;6321;53.798;10.382;2022-07-22T12:53:02;5.07;;;2.10;;
12511;SDS011;6321;53.798;10.382;2022-07-22T12:55:29;5.83;;;2.60;;
12511;SDS011;6321;53.798;10.382;2022-07-22T12:57:55;5.07;;;1.90;;
12511;SDS011;6321;53.798;10.382;2022-07-22T13:00:25;6.63;;;2.03;;
12511;SDS011;6321;53.798;10.382;2022-07-22T13:02:52;5.23;;;2.03;;
12511;SDS011;6321;53.798;10.382;2022-07-22T13:05:18;4.63;;;1.77;;
12511;SDS011;6321;53.798;10.382;2022-07-22T13:07:44;4.70;;;2.13;;
12511;SDS011;6321;53.798;10.382;2022-07-22T13:10:12;7.10;;;2.13;;
12511;SDS011;6321;53.798;10.382;2022-07-22T13:12:38;4.87;;;2.03;;
12511;SDS011;6321;53.798;10.382;2022-07-22T13:15:04;4.70;;;2.10;;
12511;SDS011;6321;53.798;10.382;2022-07-22T13:17:30;5.43;;;2.27;;
12511;SDS011;6321;53.798;10.382;2022-07-22T13:19:56;6.57;;;2.17;;
12511;SDS011;6321;53.798;10.382;2022-07-22T13:22:22;4.50;;;2.07;;
12511;SDS011;6321;53.798;10.382;2022-07-22T13:24:48;5.63;;;2.10;;
12511;SDS011;6321;53.798;10.382;2022-07-22T13:27:14;6.27;;;2.40;;
12511;SDS011;6321;53.798;10.382;2022-07-22T13:29:40;3.03;;;2.10;;
12511;SDS011;6321;53.798;10.382;2022-07-22T13:32:06;4.60;;;2.20;;
12511;SDS011;6321;53.798;10.382;2022-07-22T13:34:32;5.20;;;2.00;;
12511;SDS011;6321;53.798;10.382;2022-07-22T13:36:59;4.97;;;2.17;;
12511;SDS011;6321;53.798;10.382;2022-07-22T13:39:25;5.57;;;2.30;;
12511;SDS011;6321;53.798;10.382;2022-07-22T13:41:51;7.77;;;2.53;;
12511;SDS011;6321;53.798;10.382;2022-07-22T13:44:17;5.03;;;2.37;;
12511;SDS011;6321;53.798;10.382;2022-07-22T13:46:43;7.10;;;2.20;;
12511;SDS011;6321;53.798;10.382;2022-07-22T13:49:10;4.90;;;1.70;;
12511;SDS011;6321;53.798;10.382;2022-07-22T13:51:36;4.90;;;1.80;;
12511;SDS011;6321;53.798;10.382;2022-07-22T13:54:02;6.50;;;2.60;;
12511;SDS011;6321;53.798;10.382;2022-07-22T13:56:28;5.13;;;2.10;;
12511;SDS011;6321;53.798;10.382;2022-07-22T13:58:54;7.43;;;2.73;;
12511;SDS011;6321;53.798;10.382;2022-07-22T14:01:20;5.33;;;2.07;;
12511;SDS011;6321;53.798;10.382;2022-07-22T14:03:47;7.87;;;2.20;;
12511;SDS011;6321;53.798;10.382;2022-07-22T14:06:12;3.97;;;2.20;;
12511;SDS011;6321;53.798;10.382;2022-07-22T14:08:38;4.50;;;1.97;;
12511;SDS011;6321;53.798;10.382;2022-07-22T14:11:04;6.17;;;2.23;;
12511;SDS011;6321;53.798;10.382;2022-07-22T14:13:30;4.57;;;2.10;;
12511;SDS011;6321;53.798;10.382;2022-07-22T14:15:56;6.53;;;2.20;;
12511;SDS011;6321;53.798;10.382;2022-07-22T14:18:42;4.27;;;1.70;;
12511;SDS011;6321;53.798;10.382;2022-07-22T14:21:08;2.87;;;1.43;;
12511;SDS011;6321;53.798;10.382;2022-07-22T14:23:34;5.60;;;1.93;;
12511;SDS011;6321;53.798;10.382;2022-07-22T14:26:00;3.47;;;2.07;;
12511;SDS011;6321;53.798;10.382;2022-07-22T14:28:26;3.13;;;1.67;;
12511;SDS011;6321;53.798;10.382;2022-07-22T14:30:51;5.03;;;2.23;;
12511;SDS011;6321;53.798;10.382;2022-07-22T14:33:17;2.93;;;1.67;;
12511;SDS011;6321;53.798;10.382;2022-07-22T14:35:43;2.87;;;1.70;;
12511;SDS011;6321;53.798;10.382;2022-07-22T14:38:09;3.43;;;1.80;;
12511;SDS011;6321;53.798;10.382;2022-07-22T14:40:35;5.17;;;1.80;;
12511;SDS011;6321;53.798;10.382;2022-07-22T14:43:01;3.97;;;1.80;;
12511;SDS011;6321;53.798;10.382;2022-07-22T14:45:27;5.57;;;2.00;;